Portada
METAR-TAF:

METAR-TAF

Aeropuertos :

Aeropuerto de Bilbao

Bilbao, España

latitud: 43-18N, longitud: 002-56W, altitud: 42 m

Observación

El informe se hizo hace 23 minutos, a las 08:00 UTC
Viento 3 kt del este, variando entre este-noreste y sureste
Temperatura 11°C
Humedad 66%
Presión 1031 hPa
Visibilidad 10 km o más
sin nubes por debajo de 1500 m y sin presencia de cumulonimbus.

METAR: LEBB 220800Z 10003KT 070V140 CAVOK 11/05 Q1031 NOSIG

Hora: 09:23 (08:23 UTC)

Pronóstico

El informe se hizo hace 3 horas y 23 minutos, a las 05:00 UTC
Pronóstico válido del 22 a las 06 UTC al 23 a las 06 UTC
Viento 6 kt del sur
Visibilidad 10 km o más
Escasas nubes a una altura de 4000 ft

TAF: LEBB 220500Z 2206/2306 18006KT 9999 FEW040 TX23/2215Z TN06/2206Z

Observaciones y pronósticos meteorológicos de más de 4000 aeropuertos (mensajes METAR y TAF).

Los puntos amarillos y rojos representan las estaciones disponibles.

Ponga el ratón en el punto deseado para ver el nombre de la estación.

Haga clic para ver las observaciones y los pronósticos meteorológicos.

Para cambiar el mapa : haga clic en los botones verdes con una cruz de color negro para hacer un zoom, en el botón verde con un guión para alejar o en las flechas verdes para mapas adyacentes.


METAR-TAF: